createdAt,value
2023-03-06T00:00:50.602Z,94267.00
2023-03-06T00:01:50.628Z,94267.00
2023-03-06T00:02:52.138Z,94263.00
2023-03-06T00:03:50.727Z,94267.00
2023-03-06T00:04:50.728Z,94263.00
2023-03-06T00:05:50.823Z,94263.00
2023-03-06T00:06:50.794Z,94265.00
2023-03-06T00:07:50.846Z,94265.00
2023-03-06T00:08:50.882Z,94261.00
2023-03-06T00:09:50.926Z,94267.00
2023-03-06T00:10:50.966Z,94265.00
2023-03-06T00:11:51.045Z,94267.00
2023-03-06T00:12:51.072Z,94265.00
2023-03-06T00:13:51.115Z,94265.00
2023-03-06T00:14:51.168Z,94265.00
2023-03-06T00:15:51.256Z,94265.00
2023-03-06T00:16:51.283Z,94263.00
2023-03-06T00:17:51.311Z,94265.00
2023-03-06T00:18:51.337Z,94263.00
2023-03-06T00:19:51.425Z,94263.00
2023-03-06T00:20:51.487Z,94261.00
2023-03-06T00:21:51.520Z,94261.00
2023-03-06T00:22:51.560Z,94259.00
2023-03-06T00:23:51.592Z,94263.00
2023-03-06T00:24:51.666Z,94259.00
2023-03-06T00:25:51.667Z,94261.00
2023-03-06T00:26:51.722Z,94257.00
2023-03-06T00:27:51.743Z,94257.00
2023-03-06T00:28:51.800Z,94257.00
2023-03-06T00:29:51.814Z,94253.00
2023-03-06T00:30:51.887Z,94253.00
2023-03-06T00:31:51.894Z,94253.00
2023-03-06T00:32:51.929Z,94253.00
2023-03-06T00:33:51.976Z,94255.00
2023-03-06T00:34:52.045Z,94253.00
2023-03-06T00:35:52.099Z,94255.00
2023-03-06T00:36:52.053Z,94253.00
2023-03-06T00:37:52.108Z,94253.00
2023-03-06T00:38:52.159Z,94255.00
2023-03-06T00:39:52.221Z,94251.00
2023-03-06T00:40:52.183Z,94251.00
2023-03-06T00:41:52.211Z,94251.00
2023-03-06T00:42:52.297Z,94249.00
2023-03-06T00:43:52.311Z,94247.00
2023-03-06T00:44:52.393Z,94247.00
2023-03-06T00:45:52.376Z,94247.00
2023-03-06T00:46:52.373Z,94245.00
2023-03-06T00:47:52.414Z,94245.00
2023-03-06T00:48:52.436Z,94241.00
2023-03-06T00:49:52.451Z,94245.00
2023-03-06T00:50:52.465Z,94241.00
2023-03-06T00:51:52.492Z,94239.00
2023-03-06T00:52:52.501Z,94237.00
2023-03-06T00:53:52.494Z,94235.00
2023-03-06T00:54:52.569Z,94235.00
2023-03-06T00:55:52.548Z,94237.00
2023-03-06T00:56:52.586Z,94235.00
2023-03-06T00:57:52.606Z,94233.00
2023-03-06T00:58:52.609Z,94233.00
2023-03-06T00:59:52.621Z,94233.00
2023-03-06T01:00:52.664Z,94233.00
2023-03-06T01:01:52.789Z,94233.00
2023-03-06T01:02:52.759Z,94233.00
2023-03-06T01:03:52.802Z,94230.00
2023-03-06T01:04:52.864Z,94230.00
2023-03-06T01:05:52.851Z,94228.00
2023-03-06T01:06:52.866Z,94225.00
2023-03-06T01:07:52.930Z,94225.00
2023-03-06T01:08:52.927Z,94225.00
2023-03-06T01:09:52.961Z,94223.00
2023-03-06T01:10:53.001Z,94222.00
2023-03-06T01:12:53.077Z,94220.00
2023-03-06T01:13:53.087Z,94218.00
2023-03-06T01:14:53.126Z,94218.00
2023-03-06T01:15:53.192Z,94214.00
2023-03-06T01:18:53.344Z,94210.00
2023-03-06T01:19:53.393Z,94210.00
2023-03-06T01:22:53.512Z,94202.00
2023-03-06T01:23:53.614Z,94202.00
2023-03-06T01:24:53.644Z,94204.00
2023-03-06T01:25:53.687Z,94204.00
2023-03-06T01:26:53.748Z,94204.00
2023-03-06T01:27:53.804Z,94204.00
2023-03-06T01:28:53.851Z,94198.00
2023-03-06T01:29:53.975Z,94196.00
2023-03-06T01:30:54.021Z,94196.00
2023-03-06T03:08:57.850Z,94077.00
2023-03-06T03:09:57.871Z,94075.00
2023-03-06T03:10:57.889Z,94075.00
2023-03-06T03:11:57.950Z,94075.00
2023-03-06T03:12:58.001Z,94075.00
2023-03-06T03:13:58.047Z,94073.00
2023-03-06T03:14:58.058Z,94073.00
2023-03-06T03:15:58.143Z,94071.00
2023-03-06T03:16:58.161Z,94071.00
2023-03-06T03:17:58.210Z,94073.00
2023-03-06T03:18:58.255Z,94073.00
2023-03-06T03:19:58.309Z,94071.00
2023-03-06T03:20:58.354Z,94069.00
2023-03-06T03:21:58.420Z,94067.00
2023-03-06T03:22:58.483Z,94065.00
2023-03-06T03:23:58.511Z,94067.00
2023-03-06T03:24:58.542Z,94063.00
2023-03-06T03:25:58.592Z,94061.00
2023-03-06T03:26:58.643Z,94059.00
2023-03-06T03:27:58.649Z,94057.00
2023-03-06T03:28:58.709Z,94059.00
2023-03-06T03:29:58.783Z,94057.00
2023-03-06T03:30:58.803Z,94055.00
2023-03-06T03:31:58.853Z,94057.00
2023-03-06T03:32:58.888Z,94057.00
2023-03-06T03:33:58.957Z,94052.00
2023-03-06T03:34:58.973Z,94053.00
2023-03-06T03:35:59.000Z,94053.00
2023-03-06T03:36:59.099Z,94050.00
2023-03-06T03:37:59.104Z,94050.00
2023-03-06T03:38:59.173Z,94048.00
2023-03-06T03:39:59.208Z,94048.00
2023-03-06T03:40:59.253Z,94044.00
2023-03-06T03:41:59.328Z,94042.00
2023-03-06T03:42:59.344Z,94038.00
2023-03-06T03:43:59.408Z,94038.00
2023-03-06T03:44:59.429Z,94036.00
2023-03-06T03:45:59.502Z,94034.00
2023-03-06T03:46:59.532Z,94034.00
2023-03-06T03:47:59.550Z,94032.00
2023-03-06T03:48:59.619Z,94030.00
2023-03-06T03:49:59.683Z,94028.00
2023-03-06T03:50:59.696Z,94028.00
2023-03-06T03:51:59.770Z,94026.00
2023-03-06T03:52:59.777Z,94024.00
2023-03-06T03:53:59.815Z,94024.00
2023-03-06T03:54:59.869Z,94024.00
2023-03-06T03:55:59.905Z,94022.00
2023-03-06T03:56:59.919Z,94020.00
2023-03-06T03:57:59.974Z,94018.00
2023-03-06T03:58:59.982Z,94018.00
2023-03-06T04:00:00.042Z,94020.00
2023-03-06T04:01:00.083Z,94018.00
2023-03-06T04:02:00.185Z,94012.00
2023-03-06T04:03:00.146Z,94016.00
2023-03-06T04:04:00.171Z,94014.00
2023-03-06T04:05:00.251Z,94010.00
2023-03-06T04:06:00.241Z,94010.00
2023-03-06T04:07:00.317Z,94005.00
2023-03-06T04:08:00.353Z,94005.00
2023-03-06T04:09:00.413Z,94003.00
2023-03-06T04:10:00.452Z,94005.00
2023-03-06T04:11:00.497Z,94005.00
2023-03-06T04:12:00.559Z,94003.00
2023-03-06T04:13:00.569Z,94001.00
2023-03-06T04:14:00.624Z,94005.00
2023-03-06T04:15:00.678Z,94001.00
2023-03-06T04:16:00.777Z,94001.00
2023-03-06T04:17:00.755Z,94001.00
2023-03-06T04:18:00.815Z,93999.00
2023-03-06T04:19:00.843Z,93999.00
2023-03-06T04:20:00.913Z,94001.00
2023-03-06T04:21:00.948Z,93997.00
2023-03-06T04:22:01.016Z,93993.00
2023-03-06T04:23:01.043Z,93993.00
2023-03-06T04:24:01.115Z,93989.00
2023-03-06T04:25:01.114Z,93987.00
2023-03-06T04:26:01.162Z,93987.00
2023-03-06T04:27:01.215Z,93987.00
2023-03-06T04:28:01.265Z,93987.00
2023-03-06T04:29:01.249Z,93989.00
2023-03-06T04:30:01.354Z,93989.00
2023-03-06T04:31:01.374Z,93987.00
2023-03-06T04:32:01.421Z,93985.00
2023-03-06T04:33:01.460Z,93985.00
2023-03-06T04:34:01.487Z,93985.00
2023-03-06T04:35:01.615Z,93985.00
2023-03-06T04:36:01.587Z,93981.00
2023-03-06T04:37:01.602Z,93977.00
2023-03-06T04:38:01.622Z,93975.00
2023-03-06T04:39:01.712Z,93977.00
2023-03-06T04:40:01.768Z,93977.00
2023-03-06T04:41:01.765Z,93977.00
2023-03-06T04:42:01.795Z,93977.00
2023-03-06T04:43:01.815Z,93973.00
2023-03-06T04:44:01.882Z,93977.00
2023-03-06T04:45:01.933Z,93979.00
2023-03-06T04:46:02.052Z,93977.00
2023-03-06T04:47:01.989Z,93977.00
2023-03-06T04:48:02.062Z,93975.00
2023-03-06T04:49:02.108Z,93973.00
2023-03-06T04:50:02.171Z,93975.00
2023-03-06T04:51:02.204Z,93975.00
2023-03-06T04:52:02.277Z,93973.00
2023-03-06T04:53:02.305Z,93977.00
2023-03-06T04:54:02.334Z,93973.00
2023-03-06T04:55:02.426Z,93973.00
2023-03-06T04:56:02.443Z,93971.00
2023-03-06T04:57:02.508Z,93973.00
2023-03-06T04:58:02.523Z,93971.00
2023-03-06T04:59:02.591Z,93967.00
2023-03-06T05:00:02.623Z,93967.00
2023-03-06T05:01:02.739Z,93969.00
2023-03-06T05:02:02.762Z,93971.00
2023-03-06T05:03:02.776Z,93969.00
2023-03-06T05:04:02.840Z,93967.00
2023-03-06T05:05:02.901Z,93965.00
2023-03-06T05:06:02.934Z,93965.00
2023-03-06T05:07:02.981Z,93963.00
2023-03-06T05:08:03.061Z,93961.00
2023-03-06T05:09:03.110Z,93965.00
2023-03-06T05:10:03.150Z,93965.00
2023-03-06T05:11:03.186Z,93967.00
2023-03-06T05:12:03.222Z,93967.00
2023-03-06T05:13:03.285Z,93961.00
2023-03-06T05:14:03.359Z,93959.00
2023-03-06T05:15:03.379Z,93958.00
2023-03-06T05:16:03.550Z,93956.00
2023-03-06T05:17:03.462Z,93956.00
2023-03-06T05:18:03.502Z,93956.00
2023-03-06T05:19:03.527Z,93956.00
2023-03-06T05:20:03.608Z,93958.00
2023-03-06T05:21:03.662Z,93956.00
2023-03-06T05:22:03.751Z,93952.00
2023-03-06T05:23:03.768Z,93948.00
2023-03-06T05:24:03.809Z,93948.00
2023-03-06T05:25:03.870Z,93950.00
2023-03-06T05:26:03.944Z,93952.00
2023-03-06T05:27:03.987Z,93950.00
2023-03-06T05:28:04.001Z,93950.00
2023-03-06T05:29:03.994Z,93948.00
2023-03-06T05:30:03.991Z,93948.00
2023-03-06T05:31:03.991Z,93948.00
2023-03-06T05:32:04.058Z,93948.00
2023-03-06T05:33:03.969Z,93948.00
2023-03-06T05:34:03.981Z,93948.00
2023-03-06T05:35:03.989Z,93948.00
2023-03-06T05:36:04.004Z,93946.00
2023-03-06T05:50:04.038Z,93946.00
2023-03-06T05:51:04.107Z,93946.00
2023-03-06T05:52:04.193Z,93948.00
2023-03-06T06:01:12.141Z,93952.00
2023-03-06T06:46:47.189Z,93959.00
2023-03-06T09:05:07.886Z,93981.00
2023-03-06T09:06:07.873Z,93981.00
2023-03-06T09:07:07.958Z,93981.00
2023-03-06T09:08:07.910Z,93981.00
2023-03-06T09:09:07.931Z,93981.00
2023-03-06T09:10:07.989Z,93983.00
2023-03-06T09:11:08.008Z,93979.00
2023-03-06T09:12:08.047Z,93981.00
2023-03-06T09:13:08.131Z,93981.00
2023-03-06T09:14:08.134Z,93977.00
2023-03-06T09:15:08.138Z,93975.00
2023-03-06T09:16:08.145Z,93979.00
2023-03-06T09:17:08.198Z,93979.00
2023-03-06T09:18:08.260Z,93977.00
2023-03-06T09:19:08.234Z,93975.00
2023-03-06T09:20:10.434Z,93975.00
2023-03-06T09:21:08.241Z,93973.00
2023-03-06T09:22:08.311Z,93973.00
2023-03-06T09:23:08.727Z,93975.00
2023-03-06T09:24:08.257Z,93975.00
2023-03-06T09:25:08.324Z,93971.00
2023-03-06T09:26:08.269Z,93965.00
2023-03-06T09:27:08.270Z,93977.00
2023-03-06T09:28:11.575Z,93975.00
2023-03-06T09:29:08.269Z,93973.00
2023-03-06T09:30:08.276Z,93975.00
2023-03-06T09:31:08.303Z,93975.00
2023-03-06T09:32:08.414Z,93971.00
2023-03-06T09:33:08.759Z,93973.00
2023-03-06T09:34:08.219Z,93971.00
2023-03-06T09:35:08.236Z,93971.00
2023-03-06T09:36:08.250Z,93973.00
2023-03-06T09:37:08.193Z,93975.00
2023-03-06T09:38:08.321Z,93969.00
2023-03-06T09:39:08.202Z,93971.00
2023-03-06T09:40:08.224Z,93973.00
2023-03-06T09:41:08.774Z,93971.00
2023-03-06T09:42:08.233Z,93971.00
2023-03-06T10:40:08.860Z,93905.00
2023-03-06T10:41:08.891Z,93903.00
2023-03-06T10:42:09.099Z,93914.00
2023-03-06T10:43:11.778Z,93914.00
2023-03-06T10:44:09.128Z,93914.00
2023-03-06T10:45:08.992Z,93905.00
2023-03-06T10:46:09.050Z,93905.00
2023-03-06T10:47:09.038Z,93903.00
2023-03-06T10:48:08.998Z,93899.00
2023-03-06T10:49:09.251Z,93893.00
2023-03-06T10:50:08.953Z,93887.00
2023-03-06T10:51:17.752Z,93881.00
2023-03-06T10:53:08.954Z,93872.00
2023-03-06T10:54:09.289Z,93872.00
2023-03-06T10:55:11.157Z,93870.00
2023-03-06T10:56:08.934Z,93872.00
2023-03-06T10:57:08.945Z,93870.00
2023-03-06T10:58:08.917Z,93870.00
2023-03-06T10:59:08.967Z,93872.00
2023-03-06T11:00:08.912Z,93862.00
2023-03-06T11:01:09.800Z,93862.00
2023-03-06T11:02:08.923Z,93858.00
2023-03-06T11:03:08.881Z,93854.00
2023-03-06T11:04:08.916Z,93854.00
2023-03-06T11:05:08.908Z,93852.00
2023-03-06T11:06:11.430Z,93854.00
2023-03-06T11:07:08.860Z,93854.00
2023-03-06T11:08:08.870Z,93850.00
2023-03-06T11:09:08.825Z,93846.00
2023-03-06T11:10:08.862Z,93846.00
2023-03-06T11:11:08.836Z,93842.00
2023-03-06T11:12:08.817Z,93838.00
2023-03-06T11:13:08.790Z,93838.00
2023-03-06T11:14:08.828Z,93840.00
2023-03-06T11:15:08.804Z,93844.00
2023-03-06T11:16:08.933Z,93842.00
2023-03-06T11:17:08.783Z,93840.00
2023-03-06T11:18:08.877Z,93842.00
2023-03-06T11:19:08.831Z,93840.00
2023-03-06T11:24:08.832Z,93817.00
2023-03-06T11:29:08.914Z,93807.00
2023-03-06T11:36:08.989Z,93797.00
2023-03-06T11:45:08.784Z,93791.00
2023-03-06T11:55:08.776Z,93770.00
2023-03-06T12:00:08.791Z,93758.00
2023-03-06T12:15:08.811Z,93740.00
2023-03-06T12:20:09.308Z,93736.00
2023-03-06T12:23:15.307Z,93733.00
2023-03-06T12:24:09.857Z,93731.00
2023-03-06T12:25:09.322Z,93731.00
2023-03-06T12:26:08.830Z,93729.00
2023-03-06T12:27:08.846Z,93731.00
2023-03-06T12:28:08.820Z,93729.00
2023-03-06T12:29:08.788Z,93734.00
2023-03-06T12:30:08.790Z,93734.00
2023-03-06T12:32:08.949Z,93731.00
2023-03-06T12:33:08.852Z,93731.00
2023-03-06T12:34:08.915Z,93727.00
2023-03-06T12:35:09.277Z,93725.00
2023-03-06T12:36:09.015Z,93719.00
2023-03-06T12:37:09.044Z,93721.00
2023-03-06T12:38:09.087Z,93721.00
2023-03-06T12:39:09.132Z,93723.00
2023-03-06T12:40:09.106Z,93719.00
2023-03-06T12:41:09.118Z,93719.00
2023-03-06T12:42:17.800Z,93721.00
2023-03-06T12:43:10.133Z,93717.00
2023-03-06T12:44:09.092Z,93715.00
2023-03-06T12:45:09.107Z,93713.00
2023-03-06T12:46:09.108Z,93709.00
2023-03-06T12:47:09.079Z,93711.00
2023-03-06T12:48:09.061Z,93709.00
2023-03-06T12:49:09.126Z,93703.00
2023-03-06T12:50:09.053Z,93707.00
2023-03-06T12:51:09.049Z,93703.00
2023-03-06T12:52:09.808Z,93707.00
2023-03-06T12:53:09.067Z,93709.00
2023-03-06T12:54:09.022Z,93705.00
2023-03-06T12:55:08.998Z,93705.00
2023-03-06T12:56:09.034Z,93699.00
2023-03-06T12:57:09.010Z,93697.00
2023-03-06T12:58:08.996Z,93694.00
2023-03-06T12:59:08.998Z,93697.00
2023-03-06T13:00:09.008Z,93697.00
2023-03-06T13:01:09.020Z,93699.00
2023-03-06T13:02:09.033Z,93694.00
2023-03-06T13:03:09.066Z,93697.00
2023-03-06T13:04:09.099Z,93694.00
2023-03-06T13:05:09.116Z,93695.00
2023-03-06T13:06:09.147Z,93692.00
2023-03-06T13:07:09.195Z,93690.00
2023-03-06T13:08:09.203Z,93688.00
2023-03-06T13:09:09.230Z,93686.00
2023-03-06T13:10:09.290Z,93684.00
2023-03-06T13:11:09.337Z,93682.00
2023-03-06T13:12:09.321Z,93682.00
2023-03-06T13:13:09.366Z,93678.00
2023-03-06T13:14:09.412Z,93678.00
2023-03-06T13:15:09.458Z,93680.00
2023-03-06T13:16:09.484Z,93678.00
2023-03-06T13:17:09.533Z,93678.00
2023-03-06T13:18:09.530Z,93682.00
2023-03-06T13:19:09.579Z,93684.00
2023-03-06T13:20:09.621Z,93684.00
2023-03-06T13:21:09.671Z,93680.00
2023-03-06T13:22:09.689Z,93678.00
2023-03-06T13:23:09.717Z,93676.00
2023-03-06T13:24:09.740Z,93678.00
2023-03-06T13:25:09.789Z,93678.00
2023-03-06T13:26:09.805Z,93676.00
2023-03-06T13:27:09.827Z,93676.00
2023-03-06T13:29:09.924Z,93676.00
2023-03-06T13:30:09.930Z,93672.00
2023-03-06T13:31:18.324Z,93670.00
2023-03-06T13:33:09.950Z,93672.00
2023-03-06T13:34:09.944Z,93674.00
2023-03-06T13:35:09.978Z,93674.00
2023-03-06T13:36:09.962Z,93670.00
2023-03-06T13:37:09.953Z,93674.00
2023-03-06T13:38:09.915Z,93674.00
2023-03-06T13:39:10.020Z,93672.00
2023-03-06T13:40:09.977Z,93672.00
2023-03-06T13:41:09.904Z,93666.00
2023-03-06T13:42:09.897Z,93666.00
2023-03-06T13:43:09.923Z,93670.00
2023-03-06T13:44:09.903Z,93664.00
2023-03-06T13:45:09.852Z,93666.00
2023-03-06T13:46:09.916Z,93662.00
2023-03-06T13:47:09.929Z,93664.00
2023-03-06T13:48:33.725Z,93662.00
2023-03-06T13:50:09.956Z,93662.00
2023-03-06T13:51:10.000Z,93660.00
2023-03-06T13:52:09.934Z,93662.00
2023-03-06T13:53:09.940Z,93664.00
2023-03-06T13:54:10.040Z,93664.00
2023-03-06T13:55:09.960Z,93672.00
2023-03-06T13:56:09.928Z,93666.00
2023-03-06T13:57:09.893Z,93666.00
2023-03-06T13:58:09.886Z,93672.00
2023-03-06T13:59:09.916Z,93666.00
2023-03-06T14:00:10.245Z,93664.00
2023-03-06T14:01:09.987Z,93664.00
2023-03-06T14:02:10.048Z,93662.00
2023-03-06T14:03:10.040Z,93666.00
2023-03-06T14:04:10.119Z,93662.00
2023-03-06T14:05:10.186Z,93668.00
2023-03-06T14:07:10.237Z,93670.00
2023-03-06T14:08:10.310Z,93672.00
2023-03-06T14:37:12.026Z,93680.00
2023-03-06T14:41:14.063Z,93682.00
2023-03-06T14:43:12.296Z,93680.00
2023-03-06T14:44:12.349Z,93682.00
2023-03-06T14:45:12.392Z,93684.00
2023-03-06T14:46:12.515Z,93682.00
2023-03-06T14:47:12.509Z,93682.00
2023-03-06T14:49:12.611Z,93682.00
2023-03-06T14:50:12.665Z,93684.00
2023-03-06T14:51:12.725Z,93684.00
2023-03-06T14:52:12.806Z,93680.00
2023-03-06T14:53:12.813Z,93682.00
2023-03-06T14:55:12.927Z,93684.00
2023-03-06T15:03:13.417Z,93686.00
2023-03-06T15:04:13.503Z,93686.00
2023-03-06T15:05:13.558Z,93688.00
2023-03-06T15:06:13.623Z,93688.00
2023-03-06T15:07:13.671Z,93684.00
2023-03-06T15:08:13.705Z,93688.00
2023-03-06T15:09:13.791Z,93692.00
2023-03-06T15:11:13.904Z,93686.00
2023-03-06T15:12:13.971Z,93688.00
2023-03-06T15:14:14.053Z,93690.00
2023-03-06T15:15:14.131Z,93688.00
2023-03-06T15:16:14.244Z,93692.00
2023-03-06T15:21:14.532Z,93694.00
2023-03-06T15:22:14.593Z,93695.00
2023-03-06T15:23:14.675Z,93688.00
2023-03-06T15:24:14.726Z,93690.00
2023-03-06T15:25:14.742Z,93699.00
2023-03-06T15:26:14.818Z,93697.00
2023-03-06T15:27:14.879Z,93697.00
2023-03-06T15:28:14.963Z,93699.00
2023-03-06T15:29:14.991Z,93709.00
2023-03-06T15:30:15.059Z,93707.00
2023-03-06T15:31:15.236Z,93703.00
2023-03-06T15:32:15.300Z,93707.00
2023-03-06T15:33:15.262Z,93713.00
2023-03-06T15:34:15.315Z,93713.00
2023-03-06T15:35:15.357Z,93711.00
2023-03-06T15:36:15.422Z,93709.00
2023-03-06T15:37:15.518Z,93709.00
2023-03-06T15:38:15.516Z,93711.00
2023-03-06T15:39:15.658Z,93717.00
2023-03-06T15:40:15.646Z,93715.00
2023-03-06T15:41:15.731Z,93713.00
2023-03-06T15:42:15.799Z,93715.00
2023-03-06T15:43:15.853Z,93715.00
2023-03-06T15:44:15.934Z,93709.00
2023-03-06T15:45:15.994Z,93711.00
2023-03-06T15:46:16.033Z,93709.00
2023-03-06T15:47:16.050Z,93715.00
2023-03-06T15:48:16.105Z,93709.00
2023-03-06T15:49:16.163Z,93713.00
2023-03-06T15:50:16.166Z,93709.00
2023-03-06T15:51:16.274Z,93711.00
2023-03-06T15:52:16.245Z,93709.00
2023-03-06T15:53:16.246Z,93715.00
2023-03-06T15:54:16.293Z,93719.00
2023-03-06T15:55:16.323Z,93723.00
2023-03-06T15:56:16.352Z,93723.00
2023-03-06T15:57:16.316Z,93721.00
2023-03-06T15:58:16.364Z,93725.00
2023-03-06T15:59:16.375Z,93721.00
2023-03-06T16:00:26.835Z,93725.00
2023-03-06T16:01:17.486Z,93723.00
2023-03-06T16:02:16.399Z,93721.00
2023-03-06T16:03:16.358Z,93717.00
2023-03-06T16:04:16.392Z,93723.00
2023-03-06T16:05:16.375Z,93721.00
2023-03-06T16:06:16.327Z,93719.00
2023-03-06T16:07:16.359Z,93721.00
2023-03-06T16:08:16.356Z,93721.00
2023-03-06T16:09:16.301Z,93719.00
2023-03-06T16:10:16.322Z,93725.00
2023-03-06T16:11:16.326Z,93727.00
2023-03-06T16:12:16.353Z,93723.00
2023-03-06T16:13:16.310Z,93729.00
2023-03-06T16:14:16.284Z,93725.00
2023-03-06T16:15:16.278Z,93729.00
2023-03-06T16:16:16.331Z,93723.00
2023-03-06T16:17:16.278Z,93729.00
2023-03-06T16:18:16.231Z,93729.00
2023-03-06T16:19:25.201Z,93733.00
2023-03-06T16:20:17.243Z,93734.00
2023-03-06T16:21:16.211Z,93731.00
2023-03-06T16:22:16.228Z,93731.00
2023-03-06T16:23:16.238Z,93731.00
2023-03-06T16:24:16.186Z,93731.00
2023-03-06T16:25:16.194Z,93733.00
2023-03-06T16:26:16.207Z,93734.00
2023-03-06T16:27:16.214Z,93734.00
2023-03-06T16:28:16.173Z,93738.00
2023-03-06T16:29:16.192Z,93738.00
2023-03-06T16:30:16.177Z,93742.00
2023-03-06T16:31:16.171Z,93738.00
2023-03-06T16:32:16.239Z,93742.00
2023-03-06T16:33:16.117Z,93744.00
2023-03-06T16:34:16.165Z,93744.00
2023-03-06T16:35:16.194Z,93746.00
2023-03-06T16:36:16.123Z,93750.00
2023-03-06T16:37:16.093Z,93746.00
2023-03-06T16:38:16.096Z,93746.00
2023-03-06T16:39:16.100Z,93750.00
2023-03-06T16:40:16.097Z,93744.00
2023-03-06T16:41:16.113Z,93744.00
2023-03-06T16:42:16.063Z,93748.00
2023-03-06T16:43:16.153Z,93748.00
2023-03-06T16:44:16.041Z,93746.00
2023-03-06T16:45:16.055Z,93752.00
2023-03-06T16:46:16.054Z,93750.00
2023-03-06T16:47:16.033Z,93750.00
2023-03-06T16:48:16.019Z,93750.00
2023-03-06T16:49:16.017Z,93752.00
2023-03-06T16:50:16.062Z,93760.00
2023-03-06T16:51:16.035Z,93756.00
2023-03-06T16:52:16.005Z,93760.00
2023-03-06T16:53:15.980Z,93764.00
2023-03-06T16:54:15.985Z,93762.00
2023-03-06T16:55:15.966Z,93766.00
2023-03-06T16:56:15.972Z,93764.00
2023-03-06T16:57:15.945Z,93766.00
2023-03-06T16:58:15.971Z,93766.00
2023-03-06T16:59:15.951Z,93764.00
2023-03-06T17:00:15.928Z,93770.00
2023-03-06T17:01:15.944Z,93770.00
2023-03-06T17:02:15.948Z,93770.00
2023-03-06T17:03:15.898Z,93778.00
2023-03-06T17:04:15.933Z,93778.00
2023-03-06T17:05:15.905Z,93778.00
2023-03-06T17:06:15.861Z,93776.00
2023-03-06T17:07:15.871Z,93778.00
2023-03-06T17:08:15.900Z,93778.00
2023-03-06T17:09:15.864Z,93780.00
2023-03-06T17:10:15.831Z,93785.00
2023-03-06T17:11:15.850Z,93785.00
2023-03-06T17:12:15.843Z,93787.00
2023-03-06T17:13:15.841Z,93785.00
2023-03-06T17:14:15.838Z,93791.00
2023-03-06T17:15:15.838Z,93797.00
2023-03-06T17:16:15.919Z,93793.00
2023-03-06T17:17:15.881Z,93789.00
2023-03-06T17:18:15.865Z,93793.00
2023-03-06T17:19:15.917Z,93793.00
2023-03-06T17:20:15.917Z,93797.00
2023-03-06T17:21:15.953Z,93797.00
2023-03-06T17:22:15.952Z,93799.00
2023-03-06T17:23:15.978Z,93803.00
2023-03-06T17:24:15.945Z,93803.00
2023-03-06T17:25:15.999Z,93801.00
2023-03-06T17:26:16.000Z,93805.00
2023-03-06T17:27:15.995Z,93799.00
2023-03-06T17:28:16.030Z,93803.00
2023-03-06T17:29:16.023Z,93805.00
2023-03-06T17:30:16.044Z,93805.00
2023-03-06T17:31:16.147Z,93809.00
2023-03-06T17:32:16.158Z,93809.00
2023-03-06T17:33:16.107Z,93813.00
2023-03-06T17:34:16.135Z,93809.00
2023-03-06T17:35:16.145Z,93807.00
2023-03-06T17:36:16.187Z,93811.00
2023-03-06T17:37:16.279Z,93815.00
2023-03-06T17:38:16.175Z,93815.00
2023-03-06T17:39:16.270Z,93815.00
2023-03-06T17:40:16.264Z,93817.00
2023-03-06T17:41:16.263Z,93817.00
2023-03-06T17:42:16.273Z,93815.00
2023-03-06T17:43:16.315Z,93819.00
2023-03-06T17:44:16.284Z,93821.00
2023-03-06T17:45:16.372Z,93823.00
2023-03-06T17:46:16.377Z,93825.00
2023-03-06T17:47:16.338Z,93825.00
2023-03-06T17:48:16.376Z,93827.00
2023-03-06T17:49:16.397Z,93830.00
2023-03-06T17:50:16.400Z,93832.00
2023-03-06T17:51:16.439Z,93832.00
2023-03-06T17:52:16.457Z,93834.00
2023-03-06T17:53:16.427Z,93834.00
2023-03-06T17:54:16.435Z,93832.00
2023-03-06T17:55:16.463Z,93832.00
2023-03-06T18:31:16.974Z,93856.00
2023-03-06T18:32:16.939Z,93852.00
2023-03-06T18:33:16.944Z,93854.00
2023-03-06T18:34:16.984Z,93854.00
2023-03-06T18:35:16.981Z,93856.00
2023-03-06T18:36:17.012Z,93860.00
2023-03-06T18:37:17.029Z,93862.00
2023-03-06T18:38:17.026Z,93862.00
2023-03-06T18:39:17.062Z,93864.00
2023-03-06T18:40:17.039Z,93866.00
2023-03-06T18:41:17.094Z,93868.00
2023-03-06T18:42:17.134Z,93868.00
2023-03-06T18:43:17.131Z,93868.00
2023-03-06T18:44:17.152Z,93868.00
2023-03-06T18:45:17.148Z,93868.00
2023-03-06T18:46:17.184Z,93870.00
2023-03-06T18:47:17.155Z,93872.00
2023-03-06T18:48:17.164Z,93872.00
2023-03-06T18:49:17.217Z,93870.00
2023-03-06T18:50:17.205Z,93872.00
2023-03-06T18:51:17.222Z,93872.00
2023-03-06T18:52:17.233Z,93872.00
2023-03-06T18:53:17.237Z,93872.00
2023-03-06T18:54:17.243Z,93872.00
2023-03-06T18:55:17.511Z,93872.00
2023-03-06T18:56:17.258Z,93872.00
2023-03-06T18:59:18.880Z,93877.00
2023-03-06T19:00:17.309Z,93875.00
2023-03-06T19:01:17.415Z,93877.00
2023-03-06T19:02:17.360Z,93879.00
2023-03-06T19:36:17.817Z,93903.00
2023-03-06T19:37:17.821Z,93905.00
2023-03-06T19:38:17.819Z,93912.00
2023-03-06T19:39:17.854Z,93912.00
2023-03-06T19:40:17.887Z,93912.00
2023-03-06T19:41:17.901Z,93914.00
2023-03-06T19:42:17.948Z,93914.00
2023-03-06T19:43:17.927Z,93914.00
2023-03-06T19:44:17.939Z,93916.00
2023-03-06T19:45:17.976Z,93918.00
2023-03-06T19:46:18.123Z,93920.00
2023-03-06T19:47:18.002Z,93920.00
2023-03-06T19:48:18.009Z,93920.00
2023-03-06T19:49:18.133Z,93922.00
2023-03-06T19:50:18.069Z,93922.00
2023-03-06T19:51:18.094Z,93922.00
2023-03-06T19:52:18.101Z,93918.00
2023-03-06T19:53:18.131Z,93922.00
2023-03-06T19:54:18.132Z,93924.00
2023-03-06T19:55:18.137Z,93926.00
2023-03-06T19:56:18.162Z,93928.00
2023-03-06T19:57:18.174Z,93930.00
2023-03-06T19:58:18.206Z,93930.00
2023-03-06T19:59:18.220Z,93926.00
2023-03-06T20:00:18.227Z,93926.00
2023-03-06T20:01:18.326Z,93928.00
2023-03-06T20:02:18.285Z,93926.00
2023-03-06T20:03:18.304Z,93924.00
2023-03-06T20:04:18.372Z,93928.00
2023-03-06T20:05:18.367Z,93928.00
2023-03-06T20:06:18.357Z,93928.00
2023-03-06T20:07:18.369Z,93928.00
2023-03-06T20:08:18.361Z,93930.00
2023-03-06T20:09:18.397Z,93926.00
2023-03-06T20:10:18.410Z,93928.00
2023-03-06T20:11:18.456Z,93930.00
2023-03-06T20:12:18.469Z,93930.00
2023-03-06T20:13:18.486Z,93928.00
2023-03-06T20:14:18.466Z,93930.00
2023-03-06T20:15:18.506Z,93930.00
2023-03-06T20:16:18.509Z,93930.00
2023-03-06T20:17:18.541Z,93928.00
2023-03-06T20:18:18.550Z,93928.00
2023-03-06T20:19:18.576Z,93926.00
2023-03-06T20:20:18.605Z,93930.00
2023-03-06T20:21:18.624Z,93930.00
2023-03-06T20:22:18.614Z,93930.00
2023-03-06T20:23:18.603Z,93930.00
2023-03-06T20:24:18.660Z,93932.00
2023-03-06T20:25:18.651Z,93936.00
2023-03-06T20:26:18.690Z,93936.00
2023-03-06T20:27:18.701Z,93938.00
2023-03-06T20:28:18.707Z,93938.00
2023-03-06T20:29:18.709Z,93940.00
2023-03-06T20:30:18.713Z,93942.00
2023-03-06T20:31:18.776Z,93942.00
2023-03-06T20:32:18.791Z,93942.00
2023-03-06T20:33:18.803Z,93940.00
2023-03-06T20:34:18.826Z,93942.00
2023-03-06T20:35:18.870Z,93944.00
2023-03-06T20:36:18.878Z,93942.00
2023-03-06T20:37:18.883Z,93946.00
2023-03-06T20:38:18.938Z,93946.00
2023-03-06T20:39:18.950Z,93948.00
2023-03-06T20:40:18.976Z,93950.00
2023-03-06T20:41:18.996Z,93950.00
2023-03-06T20:42:19.045Z,93952.00
2023-03-06T20:43:19.073Z,93952.00
2023-03-06T20:44:19.092Z,93950.00
2023-03-06T20:45:19.124Z,93952.00